createdAt,value
2018-07-12T00:00:32.535Z,15.63
2018-07-12T00:03:29.665Z,15.64
2018-07-12T00:06:27.747Z,15.65
2018-07-12T00:09:25.149Z,15.73
2018-07-12T00:12:22.462Z,15.81
2018-07-12T00:15:20.510Z,15.89
2018-07-12T00:18:18.613Z,15.88
2018-07-12T00:21:15.585Z,15.80
2018-07-12T00:24:13.543Z,15.88
2018-07-12T00:27:10.978Z,15.85
2018-07-12T00:30:08.148Z,15.85
2018-07-12T00:33:06.001Z,15.83
2018-07-12T00:36:03.827Z,15.81
2018-07-12T00:39:00.845Z,15.78
2018-07-12T00:41:58.387Z,15.78
2018-07-12T00:44:55.605Z,15.78
2018-07-12T00:47:52.618Z,15.71
2018-07-12T00:50:49.902Z,15.75
2018-07-12T00:53:46.730Z,15.79
2018-07-12T00:56:43.899Z,15.68
2018-07-12T00:59:40.951Z,15.57
2018-07-12T01:02:38.075Z,15.52
2018-07-12T01:05:35.977Z,15.59
2018-07-12T01:08:33.837Z,15.67
2018-07-12T01:11:31.479Z,15.62
2018-07-12T01:14:28.823Z,15.64
2018-07-12T01:17:26.503Z,15.62
2018-07-12T01:20:24.082Z,15.65
2018-07-12T01:23:21.265Z,15.65
2018-07-12T01:26:18.735Z,15.64
2018-07-12T01:29:15.874Z,15.73
2018-07-12T01:32:12.935Z,15.69
2018-07-12T01:35:10.950Z,15.72
2018-07-12T01:38:08.875Z,15.69
2018-07-12T01:41:06.554Z,15.73
2018-07-12T01:44:04.302Z,15.73
2018-07-12T01:47:02.358Z,15.67
2018-07-12T01:49:59.429Z,15.68
2018-07-12T01:52:56.473Z,15.66
2018-07-12T01:55:54.675Z,15.68
2018-07-12T01:58:52.214Z,15.68
2018-07-12T02:01:49.254Z,15.67
2018-07-12T02:04:47.045Z,15.65
2018-07-12T02:07:45.006Z,15.65
2018-07-12T02:10:42.382Z,15.50
2018-07-12T02:13:39.609Z,15.48
2018-07-12T02:16:37.367Z,15.50
2018-07-12T02:19:34.775Z,15.48
2018-07-12T02:22:32.823Z,15.43
2018-07-12T02:25:30.482Z,15.26
2018-07-12T02:28:27.733Z,15.20
2018-07-12T02:31:24.726Z,15.20
2018-07-12T02:34:22.142Z,15.16
2018-07-12T02:37:19.430Z,15.06
2018-07-12T02:40:16.471Z,15.13
2018-07-12T02:43:13.734Z,15.13
2018-07-12T02:46:11.832Z,15.21
2018-07-12T02:49:10.116Z,15.21
2018-07-12T02:52:07.384Z,15.30
2018-07-12T02:55:04.503Z,15.35
2018-07-12T02:58:01.579Z,15.31
2018-07-12T03:00:59.407Z,15.24
2018-07-12T03:03:56.945Z,15.34
2018-07-12T03:06:54.029Z,15.37
2018-07-12T03:09:51.707Z,15.29
2018-07-12T03:12:49.198Z,15.32
2018-07-12T03:15:46.575Z,15.28
2018-07-12T03:18:43.906Z,15.37
2018-07-12T03:21:40.898Z,15.28
2018-07-12T03:24:38.335Z,15.22
2018-07-12T03:27:35.647Z,15.37
2018-07-12T03:30:32.941Z,15.42
2018-07-12T03:33:30.078Z,15.47
2018-07-12T03:36:27.358Z,15.45
2018-07-12T03:39:24.498Z,15.38
2018-07-12T03:42:21.382Z,15.37
2018-07-12T03:45:18.399Z,15.28
2018-07-12T03:48:16.242Z,15.25
2018-07-12T03:51:13.729Z,15.24
2018-07-12T03:54:11.471Z,15.21
2018-07-12T03:57:08.563Z,15.25
2018-07-12T04:00:06.534Z,15.20
2018-07-12T04:03:04.074Z,15.13
2018-07-12T04:06:01.862Z,15.22
2018-07-12T04:08:59.542Z,15.19
2018-07-12T04:11:56.903Z,15.31
2018-07-12T04:14:54.419Z,15.38
2018-07-12T04:17:51.655Z,15.48
2018-07-12T04:20:49.675Z,15.43
2018-07-12T04:23:47.679Z,15.45
2018-07-12T04:26:44.809Z,15.43
2018-07-12T04:29:41.847Z,15.45
2018-07-12T04:32:39.765Z,15.42
2018-07-12T04:35:36.911Z,15.48
2018-07-12T04:38:34.975Z,15.66
2018-07-12T04:41:32.951Z,15.67
2018-07-12T04:44:29.882Z,15.66
2018-07-12T04:47:27.259Z,15.69
2018-07-12T04:50:25.210Z,15.62
2018-07-12T04:53:22.675Z,15.71
2018-07-12T04:56:20.103Z,15.71
2018-07-12T04:59:17.524Z,15.78
2018-07-12T05:02:14.723Z,15.77
2018-07-12T05:05:12.316Z,15.79
2018-07-12T05:08:09.878Z,15.94
2018-07-12T05:11:07.059Z,16.04
2018-07-12T05:14:05.221Z,16.05
2018-07-12T05:17:02.578Z,15.91
2018-07-12T05:20:00.283Z,15.98
2018-07-12T05:22:57.718Z,15.93
2018-07-12T05:25:54.857Z,16.02
2018-07-12T05:28:52.335Z,16.22
2018-07-12T05:31:49.462Z,16.36
2018-07-12T05:34:46.760Z,16.44
2018-07-12T05:37:44.413Z,16.54
2018-07-12T05:40:41.658Z,16.56
2018-07-12T05:43:39.806Z,16.48
2018-07-12T05:46:37.308Z,16.53
2018-07-12T05:49:34.594Z,16.42
2018-07-12T05:52:31.722Z,16.45
2018-07-12T05:55:29.806Z,16.47
2018-07-12T05:58:27.390Z,16.58
2018-07-12T06:01:30.749Z,16.61
2018-07-12T06:04:27.811Z,16.82
2018-07-12T06:07:31.958Z,17.03
2018-07-12T06:10:30.025Z,17.13
2018-07-12T06:13:27.280Z,17.46
2018-07-12T06:16:24.539Z,17.52
2018-07-12T06:19:21.971Z,17.50
2018-07-12T06:22:20.001Z,17.08
2018-07-12T06:25:17.697Z,16.91
2018-07-12T06:28:15.875Z,17.02
2018-07-12T06:31:13.973Z,17.20
2018-07-12T06:34:11.207Z,17.35
2018-07-12T06:37:08.987Z,17.40
2018-07-12T06:40:06.785Z,17.45
2018-07-12T06:43:04.364Z,17.63
2018-07-12T06:46:01.559Z,17.92
2018-07-12T06:48:58.957Z,18.03
2018-07-12T06:51:56.796Z,17.93
2018-07-12T06:54:54.879Z,18.20
2018-07-12T06:57:52.052Z,18.53
2018-07-12T07:00:49.279Z,18.96
2018-07-12T07:03:47.207Z,19.73
2018-07-12T07:06:44.506Z,19.68
2018-07-12T07:25:47.372Z,20.25
2018-07-12T07:28:45.531Z,25.48
2018-07-12T07:31:43.567Z,26.56
2018-07-12T07:34:41.782Z,26.58
2018-07-12T07:37:38.928Z,26.56
2018-07-12T07:40:36.245Z,27.79
2018-07-12T07:43:33.415Z,27.81
2018-07-12T07:46:30.600Z,27.01
2018-07-12T07:49:27.802Z,26.53
2018-07-12T07:52:25.505Z,26.33
2018-07-12T07:55:22.884Z,25.52
2018-07-12T07:58:20.365Z,26.48
2018-07-12T08:01:18.544Z,27.61
2018-07-12T08:04:16.497Z,28.72
2018-07-12T08:07:13.745Z,28.79
2018-07-12T08:10:11.151Z,27.40
2018-07-12T08:13:08.406Z,26.68
2018-07-12T08:16:05.921Z,25.65
2018-07-12T08:19:03.238Z,25.37
2018-07-12T08:22:00.569Z,26.09
2018-07-12T08:24:58.606Z,26.01
2018-07-12T08:28:02.747Z,27.09
2018-07-12T08:30:59.867Z,26.87
2018-07-12T08:33:56.846Z,26.94
2018-07-12T08:36:54.019Z,27.42
2018-07-12T08:39:51.961Z,28.78
2018-07-12T08:42:49.479Z,29.57
2018-07-12T08:45:46.695Z,29.15
2018-07-12T08:48:44.690Z,28.42
2018-07-12T08:51:42.685Z,27.49
2018-07-12T08:54:40.273Z,27.00
2018-07-12T08:57:37.979Z,26.98
2018-07-12T09:00:35.658Z,28.29
2018-07-12T09:03:32.889Z,29.47
2018-07-12T09:06:30.455Z,29.38
2018-07-12T09:09:28.874Z,30.42
2018-07-12T09:12:26.199Z,31.29
2018-07-12T09:15:23.810Z,31.47
2018-07-12T09:18:21.247Z,31.83
2018-07-12T09:21:18.529Z,32.65
2018-07-12T09:24:16.751Z,28.89
2018-07-12T09:27:15.208Z,29.37
2018-07-12T09:30:13.038Z,28.62
2018-07-12T09:33:10.810Z,27.29
2018-07-12T09:36:08.142Z,26.18
2018-07-12T09:39:05.605Z,25.56
2018-07-12T09:42:03.387Z,27.23
2018-07-12T09:45:01.429Z,28.56
2018-07-12T09:47:58.862Z,31.15
2018-07-12T09:50:56.302Z,30.86
2018-07-12T09:53:55.114Z,31.60
2018-07-12T09:57:04.394Z,30.53
2018-07-12T10:00:01.999Z,29.66
2018-07-12T10:03:06.246Z,29.37
2018-07-12T10:06:06.471Z,28.94
2018-07-12T10:09:07.153Z,29.69
2018-07-12T10:12:10.759Z,29.19
2018-07-12T10:15:14.856Z,28.60
2018-07-12T10:18:18.707Z,27.37
2018-07-12T10:21:16.232Z,27.91
2018-07-12T10:24:14.480Z,29.73
2018-07-12T10:27:12.244Z,30.57
2018-07-12T10:30:09.988Z,30.89
2018-07-12T10:33:07.381Z,30.03
2018-07-12T10:36:04.564Z,29.31
2018-07-12T10:39:01.691Z,28.88
2018-07-12T10:41:59.603Z,29.08
2018-07-12T10:44:57.666Z,28.63
2018-07-12T10:47:54.730Z,26.86
2018-07-12T10:50:52.270Z,26.51
2018-07-12T10:53:49.650Z,26.01
2018-07-12T10:56:47.000Z,26.81
2018-07-12T10:59:44.327Z,28.84
2018-07-12T11:02:41.328Z,29.19
2018-07-12T11:05:39.378Z,29.38
2018-07-12T11:08:37.609Z,27.63
2018-07-12T11:11:34.926Z,26.64
2018-07-12T11:14:32.796Z,25.08
2018-07-12T11:17:30.177Z,25.08
2018-07-12T11:20:27.303Z,26.14
2018-07-12T11:23:25.100Z,28.27
2018-07-12T11:26:22.977Z,29.78
2018-07-12T11:29:23.547Z,29.38
2018-07-12T11:32:24.038Z,28.53
2018-07-12T11:35:21.166Z,25.65
2018-07-12T11:38:18.631Z,25.71
2018-07-12T11:41:15.831Z,26.07
2018-07-12T11:44:13.907Z,25.72
2018-07-12T11:47:11.062Z,25.78
2018-07-12T11:50:08.652Z,26.46
2018-07-12T11:53:06.512Z,26.46
2018-07-12T11:56:04.038Z,25.32
2018-07-12T11:59:01.379Z,25.28
2018-07-12T12:01:58.783Z,25.51
2018-07-12T12:04:56.071Z,26.41
2018-07-12T12:07:53.775Z,26.76
2018-07-12T12:10:52.118Z,26.09
2018-07-12T12:13:49.523Z,25.50
2018-07-12T12:16:46.970Z,25.52
2018-07-12T12:19:44.243Z,25.18
2018-07-12T12:22:41.953Z,24.63
2018-07-12T12:25:39.810Z,24.56
2018-07-12T12:28:37.397Z,24.10
2018-07-12T12:31:35.226Z,23.90
2018-07-12T12:34:32.798Z,23.55
2018-07-12T12:37:30.830Z,23.60
2018-07-12T12:40:28.427Z,23.60
2018-07-12T12:43:25.965Z,24.08
2018-07-12T12:46:24.584Z,24.23
2018-07-12T12:49:22.555Z,24.09
2018-07-12T12:52:20.078Z,23.96
2018-07-12T12:55:17.646Z,24.21
2018-07-12T12:58:15.295Z,24.18
2018-07-12T13:01:12.435Z,24.13
2018-07-12T13:04:09.775Z,24.05
2018-07-12T13:07:06.992Z,24.17
2018-07-12T13:10:04.596Z,24.21
2018-07-12T13:13:02.331Z,24.42
2018-07-12T13:15:59.852Z,24.68
2018-07-12T13:18:57.497Z,24.81
2018-07-12T13:21:54.999Z,24.86
2018-07-12T13:24:52.141Z,24.91
2018-07-12T13:27:49.816Z,24.89
2018-07-12T13:30:47.114Z,24.98
2018-07-12T13:33:44.236Z,25.07
2018-07-12T13:36:42.003Z,24.89
2018-07-12T13:39:39.195Z,24.91
2018-07-12T13:42:37.155Z,24.80
2018-07-12T13:45:34.226Z,24.91
2018-07-12T13:48:31.522Z,24.75
2018-07-12T13:51:29.004Z,24.69
2018-07-12T13:54:27.857Z,24.49
2018-07-12T13:57:25.049Z,24.22
2018-07-12T14:00:22.509Z,24.18
2018-07-12T14:03:19.871Z,24.12
2018-07-12T14:06:17.822Z,23.97
2018-07-12T14:09:15.981Z,23.86
2018-07-12T14:12:13.373Z,23.77
2018-07-12T14:15:10.915Z,24.19
2018-07-12T14:18:08.455Z,24.65
2018-07-12T14:21:06.122Z,24.86
2018-07-12T14:24:03.917Z,25.22
2018-07-12T14:27:01.110Z,25.19
2018-07-12T14:29:58.654Z,24.66
2018-07-12T14:32:56.099Z,24.67
2018-07-12T14:35:54.254Z,24.20
2018-07-12T14:38:51.732Z,23.78
2018-07-12T14:41:49.108Z,23.51
2018-07-12T14:44:46.339Z,23.18
2018-07-12T14:47:43.910Z,23.41
2018-07-12T14:50:42.014Z,23.24
2018-07-12T14:53:39.336Z,23.30
2018-07-12T14:56:36.890Z,23.33
2018-07-12T14:59:34.651Z,23.20
2018-07-12T15:02:32.708Z,22.90
2018-07-12T15:05:30.811Z,22.87
2018-07-12T15:08:28.901Z,22.86
2018-07-12T15:11:25.974Z,22.91
2018-07-12T15:14:23.240Z,22.77
2018-07-12T15:17:20.910Z,22.46
2018-07-12T15:20:18.199Z,22.41
2018-07-12T15:23:15.422Z,22.33
2018-07-12T15:26:12.553Z,22.21
2018-07-12T15:29:10.121Z,22.13
2018-07-12T15:32:08.134Z,21.99
2018-07-12T15:35:06.186Z,21.98
2018-07-12T15:38:03.449Z,22.07
2018-07-12T15:41:00.968Z,21.95
2018-07-12T15:43:58.259Z,21.97
2018-07-12T15:46:55.528Z,22.00
2018-07-12T15:49:52.592Z,21.92
2018-07-12T15:52:49.863Z,22.01
2018-07-12T15:55:47.959Z,22.11
2018-07-12T15:58:45.189Z,22.19
2018-07-12T16:01:43.135Z,22.30
2018-07-12T16:04:40.814Z,22.47
2018-07-12T16:07:38.881Z,22.63
2018-07-12T16:10:36.827Z,22.71
2018-07-12T16:13:34.511Z,22.80
2018-07-12T16:16:32.455Z,22.84
2018-07-12T16:19:29.851Z,22.58
2018-07-12T16:22:27.152Z,22.67
2018-07-12T16:25:25.287Z,22.64
2018-07-12T16:28:22.756Z,22.64
2018-07-12T16:31:20.113Z,22.50
2018-07-12T16:34:18.360Z,22.49
2018-07-12T16:37:15.825Z,22.36
2018-07-12T16:40:13.275Z,22.37
2018-07-12T16:43:11.186Z,22.20
2018-07-12T16:46:08.432Z,22.12
2018-07-12T16:49:06.703Z,21.94
2018-07-12T16:52:04.249Z,21.96
2018-07-12T16:55:02.254Z,22.04
2018-07-12T16:57:59.269Z,22.14
2018-07-12T17:00:57.402Z,22.20
2018-07-12T17:03:55.248Z,22.20
2018-07-12T17:06:52.386Z,22.14
2018-07-12T17:09:50.418Z,22.22
2018-07-12T17:12:48.579Z,22.21
2018-07-12T17:15:46.350Z,22.28
2018-07-12T17:18:44.310Z,22.17
2018-07-12T17:21:41.574Z,22.32
2018-07-12T17:24:39.747Z,22.49
2018-07-12T17:27:37.774Z,22.39
2018-07-12T17:30:35.613Z,22.05
2018-07-12T17:33:33.350Z,21.78
2018-07-12T17:36:31.436Z,21.71
2018-07-12T17:39:29.504Z,21.72
2018-07-12T17:42:27.245Z,21.73
2018-07-12T17:45:24.468Z,21.73
2018-07-12T17:48:22.399Z,21.74
2018-07-12T17:51:19.886Z,21.68
2018-07-12T17:54:17.425Z,21.73
2018-07-12T17:57:15.168Z,21.65
2018-07-12T18:00:12.902Z,21.64
2018-07-12T18:03:10.274Z,21.65
2018-07-12T18:06:08.137Z,21.63
2018-07-12T18:09:05.341Z,21.56
2018-07-12T18:12:02.642Z,21.62
2018-07-12T18:15:00.593Z,21.63
2018-07-12T18:17:57.772Z,21.71
2018-07-12T18:20:55.217Z,21.71
2018-07-12T18:23:52.620Z,21.73
2018-07-12T18:26:50.145Z,21.63
2018-07-12T18:29:47.822Z,21.54
2018-07-12T18:32:45.350Z,21.53
2018-07-12T18:35:43.434Z,21.52
2018-07-12T18:38:41.401Z,21.52
2018-07-12T18:41:39.079Z,21.30
2018-07-12T18:44:37.074Z,21.41
2018-07-12T18:47:34.828Z,21.35
2018-07-12T18:50:32.200Z,21.23
2018-07-12T18:53:29.766Z,21.10
2018-07-12T18:56:27.526Z,21.17
2018-07-12T18:59:25.209Z,21.13
2018-07-12T19:02:23.334Z,21.01
2018-07-12T19:05:20.719Z,21.09
2018-07-12T19:08:18.387Z,20.95
2018-07-12T19:11:16.560Z,20.88
2018-07-12T19:14:14.270Z,20.91
2018-07-12T19:17:11.561Z,20.90
2018-07-12T19:20:08.582Z,20.75
2018-07-12T19:23:06.848Z,20.70
2018-07-12T19:26:04.201Z,20.51
2018-07-12T19:29:01.569Z,20.37
2018-07-12T19:31:59.020Z,20.30
2018-07-12T19:34:56.765Z,20.10
2018-07-12T19:37:54.346Z,20.07
2018-07-12T19:40:51.543Z,19.89
2018-07-12T19:43:49.119Z,19.82
2018-07-12T19:46:47.254Z,19.68
2018-07-12T19:49:44.192Z,19.45
2018-07-12T19:52:42.362Z,19.48
2018-07-12T19:55:39.711Z,19.42
2018-07-12T19:58:37.414Z,19.36
2018-07-12T20:01:34.668Z,19.34
2018-07-12T20:04:32.857Z,19.33
2018-07-12T20:07:30.092Z,19.27
2018-07-12T20:10:27.318Z,19.22
2018-07-12T20:13:24.718Z,19.21
2018-07-12T20:16:21.871Z,19.13
2018-07-12T20:19:20.182Z,19.15
2018-07-12T20:22:17.978Z,19.14
2018-07-12T20:25:15.421Z,19.14
2018-07-12T20:28:13.547Z,19.15
2018-07-12T20:31:11.404Z,19.13
2018-07-12T20:34:08.579Z,19.16
2018-07-12T20:37:06.642Z,19.13
2018-07-12T20:40:04.725Z,19.10
2018-07-12T20:43:01.969Z,19.11
2018-07-12T20:45:59.869Z,19.18
2018-07-12T20:48:57.438Z,19.19
2018-07-12T20:51:55.007Z,19.08
2018-07-12T20:54:53.138Z,19.05
2018-07-12T20:57:50.457Z,19.05
2018-07-12T21:00:48.036Z,19.02
2018-07-12T21:03:46.036Z,18.95
2018-07-12T21:06:44.177Z,18.91
2018-07-12T21:09:41.772Z,18.90
2018-07-12T21:12:39.793Z,18.85
2018-07-12T21:15:37.190Z,18.80
2018-07-12T21:18:35.287Z,18.80
2018-07-12T21:21:33.400Z,18.77
2018-07-12T21:24:31.275Z,18.75
2018-07-12T21:27:29.240Z,18.72
2018-07-12T21:30:27.959Z,18.71
2018-07-12T21:33:25.905Z,18.56
2018-07-12T21:36:23.099Z,18.36
2018-07-12T21:39:21.786Z,18.33
2018-07-12T21:42:19.750Z,18.27
2018-07-12T21:45:17.295Z,18.20
2018-07-12T21:48:15.370Z,18.28
2018-07-12T21:51:13.321Z,18.16
2018-07-12T21:54:10.923Z,18.16
2018-07-12T21:57:08.882Z,18.06
2018-07-12T22:00:06.208Z,18.01
2018-07-12T22:03:03.320Z,18.01
2018-07-12T22:06:01.293Z,17.93
2018-07-12T22:08:58.568Z,17.83
2018-07-12T22:11:55.762Z,17.77
2018-07-12T22:14:53.760Z,17.67
2018-07-12T22:17:50.784Z,17.55
2018-07-12T22:20:48.487Z,17.42
2018-07-12T22:23:46.146Z,17.34
2018-07-12T22:26:43.484Z,17.21
2018-07-12T22:29:41.627Z,16.98
2018-07-12T22:32:38.886Z,16.84
2018-07-12T22:35:36.963Z,16.78
2018-07-12T22:38:34.359Z,16.69
2018-07-12T22:41:31.935Z,16.64
2018-07-12T22:44:29.488Z,16.60
2018-07-12T22:47:26.963Z,16.49
2018-07-12T22:50:24.643Z,16.43
2018-07-12T22:53:21.999Z,16.37
2018-07-12T22:56:19.042Z,16.40
2018-07-12T22:59:16.281Z,16.33
2018-07-12T23:02:14.776Z,16.31
2018-07-12T23:05:12.130Z,16.29
2018-07-12T23:08:09.420Z,16.29
2018-07-12T23:11:07.166Z,16.20
2018-07-12T23:14:04.504Z,16.10
2018-07-12T23:17:02.805Z,15.93
2018-07-12T23:20:09.730Z,15.88
2018-07-12T23:23:07.135Z,16.00
2018-07-12T23:26:05.314Z,15.95
2018-07-12T23:29:03.134Z,15.84
2018-07-12T23:32:00.957Z,15.74
2018-07-12T23:34:58.770Z,15.71
2018-07-12T23:37:55.850Z,15.52
2018-07-12T23:40:53.689Z,15.44
2018-07-12T23:43:51.330Z,15.44
2018-07-12T23:46:49.454Z,15.42
2018-07-12T23:49:47.676Z,15.42
2018-07-12T23:52:45.443Z,15.29
2018-07-12T23:55:43.402Z,15.15
2018-07-12T23:58:41.180Z,15.12
